Royston, Texas
Current Conditions -  °F | °C
As of 12:55 AM on Friday 28 Nov 2014 (Local Time) from KSWW Reporting Station
Clear Clear  
Wind Chill: 44°   Ceiling: Unl
Heat Index: 49°   Visibility: 10mi
Dew Point: 32°   Wind: 15mph
Humidity: 52%   Direction: 190°S
Pressure: 30.28"   Gusts: NA
Location:  32.6787°N, 100.492°W
Report Text: KSWW 280655Z AUTO 19013KT 10SM CLR 10/00 A3028 RMK AO2 T00960001
Loading
Personal Weather Stations






























Interactive Weather Map New forecast layout! Learn more

10-Day Weather Forecast

Advertisements
Track Severe Weather on mobile